ESSP/NRK METAR and TAF weather

Enter ICAO airport designator
Station Type Date Time Source
ESSP METAR 2020/01/20 12:50 UTC NOAA

ESSP 201250Z 26016KT 9999 SCT019 06/03 Q1028 R27/19//95


Station Type Date Time Source
ESSP Decoded METAR 2020/01/20 12:50 UTC NOAA

Norrkoping, Sweden (ESSP) 58-35N 016-09E 0M
Jan 20, 2020 - 07:50 AM EST / 2020.01.20 1250 UTC
Wind: from the W (260 degrees) at 18 MPH (16 KT):0
Visibility: greater than 7 mile(s):0
Sky conditions: partly cloudy
Temperature: 42 F (6 C)
Dew Point: 37 F (3 C)
Relative Humidity: 81%
Pressure (altimeter): 30.36 in. Hg (1028 hPa)
ob: ESSP 201250Z 26016KT 9999 SCT019 06/03 Q1028 R27/19//95
cycle: 13

Station Type Date Time Source
ESSP TAF 2018/01/01 02:31 UTC NOAA

TAF ESSP 010130Z 0102/0206 16002KT 9999 BKN004 PROB40 0102/0106 4000 BR SCT004

Example: see airport list